Log Lane Village, CO

2:35 AM MST on February 06, 2016 (GMT -0700)
Fort Morgan

Weather History for KFMM - October, 2013

Change the Weather History Date:

Tuesday, October 22, 2013

  Actual Average (KAKO) Record (KAKO)
Temperature  
Mean Temperature 52 °F 48 °F  
Max Temperature 68 °F 62 °F 84 °F (2003)
Min Temperature 37 °F 35 °F 24 °F (1984)
Degree Days  
Heating Degree Days 12    
Month to date heating degree days  
Cooling Degree Days 0    
Month to date cooling degree days  
Growing Degree Days 2 (Base 50)    
Moisture  
Dew Point 33 °F    
Average Humidity 52    
Maximum Humidity 85    
Minimum Humidity 25    
Precipitation  
Precipitation 0.00 in 0.04 in 0.58 in (2015)
Month to date precipitation 0.88  
Year to date precipitation 15.53  
Sea Level Pressure  
Sea Level Pressure 30.15 in    
Wind  
Wind Speed 8 mph (WNW)    
Max Wind Speed 17 mph    
Max Gust Speed 23 mph    
Visibility 10 miles    
Events      
T = Trace of Precipitation, MM = Missing Value Source: NWS Daily Summary

Daily Weather History Graph

Daily Weather History Graph

Search for Another Location

Airport or City:

Trip Planner

Search our weather history database for the weather conditions in past years. The results will help you decide how hot, cold, wet, or windy it might be!

Date:

Astronomy

Oct. 22, 2013 Rise Set
Actual Time 7:13 AM MDT 6:04 PM MDT
Civil Twilight 6:46 AM MDT 6:32 PM MDT
Nautical Twilight 6:14 AM MDT 7:04 PM MDT
Astronomical Twilight 5:42 AM MDT 7:35 PM MDT
Moon 8:46 PM MDT (10/22) 10:44 AM MDT (10/22)
Length of Visible Light 11h 46m
Length of Day
10h 50m
Waning Gibbous, 86% of the Moon is Illuminated
Oct 22
Waning Gibbous
Oct 26
Last Quarter
Nov 3
New
Nov 9
First Quarter
Nov 17
Full

Hourly Weather History & Observations

Time (MDT) Temp. Windchill Dew Point Humidity Pressure Visibility Wind Dir Wind Speed Gust Speed Precip Events Conditions
12:15 AM 47.8 °F - 32.7 °F 56% 30.14 in 10.0 mi NNW 9.2 mph - N/A   Overcast
12:35 AM 46.8 °F - 33.4 °F 60% 30.14 in 10.0 mi NNW 9.2 mph - N/A   Overcast
12:55 AM 48.7 °F - 32.0 °F 52% 30.14 in 10.0 mi NW 10.4 mph - N/A   Overcast
1:15 AM 49.5 °F - 31.3 °F 50% 30.13 in 10.0 mi NNW 8.1 mph - N/A   Overcast
1:35 AM 48.2 °F - 32.0 °F 54% 30.14 in 10.0 mi NNW 6.9 mph - N/A   Overcast
1:55 AM 47.5 °F - 32.0 °F 55% 30.15 in 10.0 mi NNW 6.9 mph - N/A   Overcast
2:15 AM 48.4 °F - 32.4 °F 54% 30.15 in 10.0 mi NNW 8.1 mph - N/A   Overcast
2:35 AM 48.4 °F - 32.9 °F 55% 30.15 in 10.0 mi NW 6.9 mph - N/A   Overcast
2:55 AM 45.1 °F 43.7 °F 34.5 °F 66% 30.15 in 10.0 mi West 3.5 mph - N/A   Overcast
3:15 AM 43.7 °F 42.1 °F 35.2 °F 72% 30.14 in 10.0 mi West 3.5 mph - N/A   Overcast
3:35 AM 43.7 °F 39.7 °F 35.2 °F 72% 30.14 in 10.0 mi WSW 6.9 mph - N/A   Overcast
3:55 AM 43.7 °F 41.1 °F 35.6 °F 73% 30.14 in 10.0 mi West 4.6 mph - N/A   Overcast
4:15 AM 43.9 °F 42.3 °F 34.7 °F 70% 30.14 in 10.0 mi West 3.5 mph - N/A   Overcast
4:35 AM 43.7 °F 41.1 °F 34.7 °F 71% 30.14 in 10.0 mi West 4.6 mph - N/A   Overcast
4:55 AM 42.8 °F 40.1 °F 34.7 °F 73% 30.14 in 10.0 mi WNW 4.6 mph - N/A   Overcast
5:15 AM 41.9 °F 39.0 °F 34.0 °F 73% 30.15 in 10.0 mi West 4.6 mph - N/A   Scattered Clouds
5:35 AM 39.6 °F 36.3 °F 33.8 °F 80% 30.15 in 10.0 mi WSW 4.6 mph - N/A   Scattered Clouds
5:55 AM 41.5 °F 37.8 °F 33.1 °F 72% 30.16 in 10.0 mi West 5.8 mph - N/A   Clear
6:15 AM 40.8 °F 36.9 °F 32.9 °F 73% 30.16 in 10.0 mi West 5.8 mph - N/A   Clear
6:35 AM 38.5 °F 34.1 °F 32.2 °F 78% 30.16 in 10.0 mi West 5.8 mph - N/A   Clear
6:55 AM 37.9 °F 32.7 °F 32.0 °F 79% 30.17 in 10.0 mi WNW 6.9 mph - N/A   Clear
7:15 AM 37.6 °F 31.6 °F 33.4 °F 85% 30.17 in 10.0 mi WNW 8.1 mph - N/A   Clear
7:35 AM 38.3 °F 31.4 °F 33.8 °F 84% 30.17 in 10.0 mi WNW 10.4 mph - N/A   Clear
7:55 AM 39.6 °F 34.0 °F 33.4 °F 79% 30.18 in 10.0 mi WNW 8.1 mph - N/A   Clear
8:15 AM 40.5 °F 36.5 °F 34.3 °F 79% 30.19 in 10.0 mi West 5.8 mph - N/A   Clear
8:35 AM 43.2 °F 37.9 °F 34.3 °F 71% 30.20 in 10.0 mi West 9.2 mph - N/A   Clear
8:55 AM 45.5 °F 40.3 °F 34.2 °F 65% 30.20 in 10.0 mi West 10.4 mph - N/A   Clear
9:15 AM 48.2 °F - 33.8 °F 58% 30.21 in 10.0 mi West 10.4 mph - N/A   Clear
9:35 AM 50.5 °F - 35.6 °F 57% 30.21 in 10.0 mi West 10.4 mph - N/A   Clear
9:55 AM 50.9 °F - 35.6 °F 56% 30.21 in 10.0 mi West 10.4 mph - N/A   Clear
10:15 AM 53.4 °F - 35.6 °F 51% 30.21 in 10.0 mi West 12.7 mph - N/A   Clear
10:35 AM 54.7 °F - 34.7 °F 47% 30.20 in 10.0 mi West 13.8 mph - N/A   Clear
10:55 AM 56.7 °F - 33.8 °F 42% 30.21 in 10.0 mi West 13.8 mph 20.7 mph N/A   Clear
11:15 AM 57.6 °F - 34.3 °F 42% 30.21 in 10.0 mi West 11.5 mph 18.4 mph N/A   Clear
11:35 AM 58.6 °F - 34.7 °F 41% 30.20 in 10.0 mi West 15.0 mph 18.4 mph N/A   Clear
11:55 AM 60.1 °F - 34.9 °F 39% 30.19 in 10.0 mi West 15.0 mph 18.4 mph N/A   Clear
12:15 PM 61.5 °F - 33.4 °F 35% 30.18 in 10.0 mi West 12.7 mph 17.3 mph N/A   Clear
12:35 PM 62.4 °F - 32.2 °F 32% 30.17 in 10.0 mi West 16.1 mph 21.9 mph N/A   Clear
12:55 PM 64.0 °F - 32.2 °F 30% 30.16 in 10.0 mi West 15.0 mph 19.6 mph N/A   Clear
1:15 PM 64.9 °F - 32.5 °F 30% 30.15 in 10.0 mi West 17.3 mph 23.0 mph N/A   Clear
1:35 PM 65.5 °F - 32.4 °F 29% 30.15 in 10.0 mi West 17.3 mph 20.7 mph N/A   Clear
1:55 PM 65.3 °F - 32.0 °F 29% 30.15 in 10.0 mi West 12.7 mph 19.6 mph N/A   Clear
2:15 PM 66.0 °F - 32.0 °F 28% 30.14 in 10.0 mi WNW 13.8 mph 19.6 mph N/A   Clear
2:35 PM 66.4 °F - 31.8 °F 28% 30.14 in 10.0 mi West 10.4 mph 16.1 mph N/A   Clear
2:55 PM 68.0 °F - 31.8 °F 26% 30.13 in 10.0 mi West 12.7 mph 19.6 mph N/A   Scattered Clouds
3:15 PM 66.4 °F - 30.4 °F 26% 30.13 in 10.0 mi NNW 8.1 mph - N/A   Scattered Clouds
3:35 PM 66.4 °F - 30.4 °F 26% 30.13 in 10.0 mi NNW 10.4 mph 17.3 mph N/A   Clear
3:55 PM 66.7 °F - 30.7 °F 26% 30.13 in 10.0 mi NNW 11.5 mph 17.3 mph N/A   Clear
4:15 PM 66.6 °F - 29.8 °F 25% 30.13 in 10.0 mi NNW 6.9 mph - N/A   Clear
4:35 PM 66.2 °F - 29.3 °F 25% 30.12 in 10.0 mi NNW 8.1 mph - N/A   Clear
4:55 PM 65.3 °F - 28.8 °F 25% 30.12 in 10.0 mi Calm Calm - N/A   Clear
5:15 PM 64.4 °F - 30.6 °F 28% 30.11 in 10.0 mi Calm Calm - N/A   Clear
5:35 PM 63.1 °F - 31.6 °F 31% 30.11 in 10.0 mi Calm Calm - N/A   Clear
5:55 PM 61.7 °F - 31.6 °F 32% 30.11 in 10.0 mi Calm Calm - N/A   Clear
6:15 PM 59.0 °F - 31.1 °F 35% 30.11 in 10.0 mi Calm Calm - N/A   Clear
6:35 PM 56.7 °F - 31.5 °F 38% 30.11 in 7.0 mi Calm Calm - N/A   Clear
6:55 PM 52.2 °F - 32.0 °F 46% 30.12 in 5.0 mi ENE 5.8 mph - N/A   Haze
7:15 PM 52.9 °F - 32.0 °F 45% 30.12 in 10.0 mi East 4.6 mph - N/A   Clear
7:35 PM 53.6 °F - 31.6 °F 43% 30.12 in 10.0 mi East 4.6 mph - N/A   Clear
7:55 PM 52.7 °F - 31.8 °F 45% 30.12 in 4.0 mi ENE 3.5 mph - N/A   Haze
8:15 PM 53.1 °F - 31.6 °F 44% 30.12 in 10.0 mi Calm Calm - N/A   Clear
8:35 PM 49.1 °F - 32.0 °F 52% 30.12 in 10.0 mi Calm Calm - N/A   Clear
9:15 PM 49.8 °F - 31.8 °F 50% 30.13 in 10.0 mi Calm Calm - N/A   Clear
9:35 PM 50.0 °F - 31.6 °F 49% 30.13 in 10.0 mi East 3.5 mph - N/A   Clear
9:55 PM 46.9 °F - 32.0 °F 56% 30.13 in 10.0 mi ENE 4.6 mph - N/A   Clear
10:15 PM 47.3 °F - 32.4 °F 56% 30.13 in 10.0 mi Calm Calm - N/A   Clear
10:35 PM 45.9 °F - 32.0 °F 58% 30.13 in 10.0 mi Calm Calm - N/A   Clear
10:55 PM 42.1 °F 39.2 °F 32.4 °F 68% 30.13 in 10.0 mi South 4.6 mph - N/A   Clear
11:15 PM 41.9 °F 40.0 °F 32.9 °F 70% 30.13 in 10.0 mi West 3.5 mph - N/A   Clear
11:35 PM 41.0 °F 38.0 °F 32.4 °F 71% 30.13 in 10.0 mi West 4.6 mph - N/A   Clear
11:55 PM 42.8 °F 38.6 °F 32.5 °F 67% 30.12 in 10.0 mi West 6.9 mph - N/A   Clear